sensor_id;sensor_type;location;lat;lon;timestamp;temperature;humidity
19363;DHT22;9817;50.80926400;5.16316200;2023-12-04T00:00:10;3.70;99.90
19363;DHT22;9817;50.80926400;5.16316200;2023-12-04T00:02:36;3.60;99.90
19363;DHT22;9817;50.80926400;5.16316200;2023-12-04T00:05:04;3.80;99.90
19363;DHT22;9817;50.80926400;5.16316200;2023-12-04T00:07:30;3.70;99.90
19363;DHT22;9817;50.80926400;5.16316200;2023-12-04T00:09:55;3.70;99.90
19363;DHT22;9817;50.80926400;5.16316200;2023-12-04T00:12:21;3.70;99.90
19363;DHT22;9817;50.80926400;5.16316200;2023-12-04T00:14:47;3.70;99.90
19363;DHT22;9817;50.80926400;5.16316200;2023-12-04T00:17:12;3.70;99.90
19363;DHT22;9817;50.80926400;5.16316200;2023-12-04T00:19:38;3.70;99.90
19363;DHT22;9817;50.80926400;5.16316200;2023-12-04T00:22:04;3.80;99.90
19363;DHT22;9817;50.80926400;5.16316200;2023-12-04T00:24:29;3.70;99.90
19363;DHT22;9817;50.80926400;5.16316200;2023-12-04T00:26:55;3.70;99.90
19363;DHT22;9817;50.80926400;5.16316200;2023-12-04T00:29:21;3.60;99.90
19363;DHT22;9817;50.80926400;5.16316200;2023-12-04T00:31:46;3.60;99.90
19363;DHT22;9817;50.80926400;5.16316200;2023-12-04T00:34:12;3.80;99.90
19363;DHT22;9817;50.80926400;5.16316200;2023-12-04T00:36:38;3.80;99.90
19363;DHT22;9817;50.80926400;5.16316200;2023-12-04T00:39:03;3.60;99.90
19363;DHT22;9817;50.80926400;5.16316200;2023-12-04T00:41:30;3.60;99.90
19363;DHT22;9817;50.80926400;5.16316200;2023-12-04T00:43:57;3.60;99.90
19363;DHT22;9817;50.80926400;5.16316200;2023-12-04T00:46:23;3.50;99.90
19363;DHT22;9817;50.80926400;5.16316200;2023-12-04T00:48:48;3.40;99.90
19363;DHT22;9817;50.80926400;5.16316200;2023-12-04T00:51:14;3.50;99.90
19363;DHT22;9817;50.80926400;5.16316200;2023-12-04T00:53:40;3.50;99.90
19363;DHT22;9817;50.80926400;5.16316200;2023-12-04T00:56:06;3.60;99.90
19363;DHT22;9817;50.80926400;5.16316200;2023-12-04T00:58:31;3.60;99.90
19363;DHT22;9817;50.80926400;5.16316200;2023-12-04T01:00:57;3.60;99.90
19363;DHT22;9817;50.80926400;5.16316200;2023-12-04T01:03:23;3.60;99.90
19363;DHT22;9817;50.80926400;5.16316200;2023-12-04T01:05:51;3.50;99.90
19363;DHT22;9817;50.80926400;5.16316200;2023-12-04T01:08:17;3.50;99.90
19363;DHT22;9817;50.80926400;5.16316200;2023-12-04T01:10:43;3.50;99.90
19363;DHT22;9817;50.80926400;5.16316200;2023-12-04T01:13:08;3.70;99.90
19363;DHT22;9817;50.80926400;5.16316200;2023-12-04T01:15:34;3.80;99.90
19363;DHT22;9817;50.80926400;5.16316200;2023-12-04T01:18:00;3.90;99.90
19363;DHT22;9817;50.80926400;5.16316200;2023-12-04T01:20:26;3.80;99.90
19363;DHT22;9817;50.80926400;5.16316200;2023-12-04T01:22:51;3.90;99.90
19363;DHT22;9817;50.80926400;5.16316200;2023-12-04T01:25:17;3.90;99.90
19363;DHT22;9817;50.80926400;5.16316200;2023-12-04T01:27:43;3.90;99.90
19363;DHT22;9817;50.80926400;5.16316200;2023-12-04T01:30:09;3.90;99.90
19363;DHT22;9817;50.80926400;5.16316200;2023-12-04T01:32:35;3.90;99.90
19363;DHT22;9817;50.80926400;5.16316200;2023-12-04T01:35:02;4.00;99.90
19363;DHT22;9817;50.80926400;5.16316200;2023-12-04T01:37:28;3.90;99.90
19363;DHT22;9817;50.80926400;5.16316200;2023-12-04T01:39:53;4.00;99.90
19363;DHT22;9817;50.80926400;5.16316200;2023-12-04T01:42:19;3.80;99.90
19363;DHT22;9817;50.80926400;5.16316200;2023-12-04T01:44:45;3.70;99.90
19363;DHT22;9817;50.80926400;5.16316200;2023-12-04T01:47:11;3.70;99.90
19363;DHT22;9817;50.80926400;5.16316200;2023-12-04T01:49:37;3.60;99.90
19363;DHT22;9817;50.80926400;5.16316200;2023-12-04T01:52:04;3.50;99.90
19363;DHT22;9817;50.80926400;5.16316200;2023-12-04T01:54:31;3.50;99.90
19363;DHT22;9817;50.80926400;5.16316200;2023-12-04T01:56:57;3.50;99.90
19363;DHT22;9817;50.80926400;5.16316200;2023-12-04T01:59:25;3.60;99.90
19363;DHT22;9817;50.80926400;5.16316200;2023-12-04T02:01:51;3.50;99.90
19363;DHT22;9817;50.80926400;5.16316200;2023-12-04T02:04:17;3.60;99.90
19363;DHT22;9817;50.80926400;5.16316200;2023-12-04T02:06:43;3.70;99.90
19363;DHT22;9817;50.80926400;5.16316200;2023-12-04T02:09:09;3.70;99.90
19363;DHT22;9817;50.80926400;5.16316200;2023-12-04T02:11:39;3.50;99.90
19363;DHT22;9817;50.80926400;5.16316200;2023-12-04T02:14:06;3.50;99.90
19363;DHT22;9817;50.80926400;5.16316200;2023-12-04T02:16:32;3.40;99.90
19363;DHT22;9817;50.80926400;5.16316200;2023-12-04T02:19:00;3.30;99.90
19363;DHT22;9817;50.80926400;5.16316200;2023-12-04T02:21:26;3.20;99.90
19363;DHT22;9817;50.80926400;5.16316200;2023-12-04T02:23:52;3.30;99.90
19363;DHT22;9817;50.80926400;5.16316200;2023-12-04T02:26:24;3.40;99.90
19363;DHT22;9817;50.80926400;5.16316200;2023-12-04T02:29:01;3.40;99.90
19363;DHT22;9817;50.80926400;5.16316200;2023-12-04T02:31:29;3.30;99.90
19363;DHT22;9817;50.80926400;5.16316200;2023-12-04T02:33:56;3.40;99.90
19363;DHT22;9817;50.80926400;5.16316200;2023-12-04T02:36:24;3.40;99.90
19363;DHT22;9817;50.80926400;5.16316200;2023-12-04T02:38:51;3.40;99.90
19363;DHT22;9817;50.80926400;5.16316200;2023-12-04T02:41:17;3.30;99.90
19363;DHT22;9817;50.80926400;5.16316200;2023-12-04T02:43:43;3.40;99.90
19363;DHT22;9817;50.80926400;5.16316200;2023-12-04T02:46:09;3.40;99.90
19363;DHT22;9817;50.80926400;5.16316200;2023-12-04T02:48:35;3.30;99.90
19363;DHT22;9817;50.80926400;5.16316200;2023-12-04T02:51:02;3.30;99.90
19363;DHT22;9817;50.80926400;5.16316200;2023-12-04T02:53:28;3.30;99.90
19363;DHT22;9817;50.80926400;5.16316200;2023-12-04T02:55:54;3.20;99.90
19363;DHT22;9817;50.80926400;5.16316200;2023-12-04T02:58:20;3.10;99.90
19363;DHT22;9817;50.80926400;5.16316200;2023-12-04T03:00:45;3.10;99.90
19363;DHT22;9817;50.80926400;5.16316200;2023-12-04T03:03:11;3.20;99.90
19363;DHT22;9817;50.80926400;5.16316200;2023-12-04T03:05:37;3.20;99.90
19363;DHT22;9817;50.80926400;5.16316200;2023-12-04T03:08:02;3.10;99.90
19363;DHT22;9817;50.80926400;5.16316200;2023-12-04T03:10:28;3.20;99.90
19363;DHT22;9817;50.80926400;5.16316200;2023-12-04T03:12:54;3.20;99.90
19363;DHT22;9817;50.80926400;5.16316200;2023-12-04T03:15:19;3.10;99.90
19363;DHT22;9817;50.80926400;5.16316200;2023-12-04T03:17:46;3.20;99.90
19363;DHT22;9817;50.80926400;5.16316200;2023-12-04T03:20:12;3.20;99.90
19363;DHT22;9817;50.80926400;5.16316200;2023-12-04T03:22:37;3.20;99.90
19363;DHT22;9817;50.80926400;5.16316200;2023-12-04T03:25:04;3.20;99.90
19363;DHT22;9817;50.80926400;5.16316200;2023-12-04T03:27:29;3.20;99.90
19363;DHT22;9817;50.80926400;5.16316200;2023-12-04T03:29:55;3.30;99.90
19363;DHT22;9817;50.80926400;5.16316200;2023-12-04T03:32:21;3.30;99.90
19363;DHT22;9817;50.80926400;5.16316200;2023-12-04T03:34:46;3.20;99.90
19363;DHT22;9817;50.80926400;5.16316200;2023-12-04T03:37:12;3.20;99.90
19363;DHT22;9817;50.80926400;5.16316200;2023-12-04T03:39:37;3.20;99.90
19363;DHT22;9817;50.80926400;5.16316200;2023-12-04T03:42:03;3.30;99.90
19363;DHT22;9817;50.80926400;5.16316200;2023-12-04T03:44:29;3.30;99.90
19363;DHT22;9817;50.80926400;5.16316200;2023-12-04T03:46:55;3.20;99.90
19363;DHT22;9817;50.80926400;5.16316200;2023-12-04T03:49:21;3.10;99.90
19363;DHT22;9817;50.80926400;5.16316200;2023-12-04T03:51:46;3.10;99.90
19363;DHT22;9817;50.80926400;5.16316200;2023-12-04T03:54:12;3.20;99.90
19363;DHT22;9817;50.80926400;5.16316200;2023-12-04T03:56:39;3.20;99.90
19363;DHT22;9817;50.80926400;5.16316200;2023-12-04T03:59:05;3.30;99.90
19363;DHT22;9817;50.80926400;5.16316200;2023-12-04T04:01:31;3.30;99.90
19363;DHT22;9817;50.80926400;5.16316200;2023-12-04T04:03:57;3.30;99.90
19363;DHT22;9817;50.80926400;5.16316200;2023-12-04T04:06:22;3.30;99.90
19363;DHT22;9817;50.80926400;5.16316200;2023-12-04T04:08:48;3.50;99.90
19363;DHT22;9817;50.80926400;5.16316200;2023-12-04T04:11:14;3.40;99.90
19363;DHT22;9817;50.80926400;5.16316200;2023-12-04T04:13:39;3.50;99.90
19363;DHT22;9817;50.80926400;5.16316200;2023-12-04T04:16:06;3.60;99.90
19363;DHT22;9817;50.80926400;5.16316200;2023-12-04T04:18:31;3.60;99.90
19363;DHT22;9817;50.80926400;5.16316200;2023-12-04T04:20:57;3.50;99.90
19363;DHT22;9817;50.80926400;5.16316200;2023-12-04T04:23:23;3.50;99.90
19363;DHT22;9817;50.80926400;5.16316200;2023-12-04T04:25:48;3.60;99.90
19363;DHT22;9817;50.80926400;5.16316200;2023-12-04T04:28:14;3.70;99.90
19363;DHT22;9817;50.80926400;5.16316200;2023-12-04T04:30:39;3.80;99.90
19363;DHT22;9817;50.80926400;5.16316200;2023-12-04T04:33:05;3.60;99.90
19363;DHT22;9817;50.80926400;5.16316200;2023-12-04T04:35:31;3.80;99.90
19363;DHT22;9817;50.80926400;5.16316200;2023-12-04T04:37:57;3.70;99.90
19363;DHT22;9817;50.80926400;5.16316200;2023-12-04T04:40:23;3.70;99.90
19363;DHT22;9817;50.80926400;5.16316200;2023-12-04T04:42:49;3.80;99.90
19363;DHT22;9817;50.80926400;5.16316200;2023-12-04T04:45:14;3.60;99.90
19363;DHT22;9817;50.80926400;5.16316200;2023-12-04T04:47:40;3.60;99.90
19363;DHT22;9817;50.80926400;5.16316200;2023-12-04T04:50:06;3.60;99.90
19363;DHT22;9817;50.80926400;5.16316200;2023-12-04T04:52:32;3.50;99.90
19363;DHT22;9817;50.80926400;5.16316200;2023-12-04T04:54:57;3.50;99.90
19363;DHT22;9817;50.80926400;5.16316200;2023-12-04T04:57:23;3.60;99.90
19363;DHT22;9817;50.80926400;5.16316200;2023-12-04T04:59:49;3.70;99.90
19363;DHT22;9817;50.80926400;5.16316200;2023-12-04T05:02:14;3.70;99.90
19363;DHT22;9817;50.80926400;5.16316200;2023-12-04T05:04:40;3.70;99.90
19363;DHT22;9817;50.80926400;5.16316200;2023-12-04T05:07:06;3.70;99.90
19363;DHT22;9817;50.80926400;5.16316200;2023-12-04T05:09:31;4.00;99.90
19363;DHT22;9817;50.80926400;5.16316200;2023-12-04T05:11:57;3.90;99.90
19363;DHT22;9817;50.80926400;5.16316200;2023-12-04T05:14:23;3.70;99.90
19363;DHT22;9817;50.80926400;5.16316200;2023-12-04T05:16:48;3.70;99.90
19363;DHT22;9817;50.80926400;5.16316200;2023-12-04T05:19:14;3.70;99.90
19363;DHT22;9817;50.80926400;5.16316200;2023-12-04T05:21:40;3.80;99.90
19363;DHT22;9817;50.80926400;5.16316200;2023-12-04T05:24:06;3.90;99.90
19363;DHT22;9817;50.80926400;5.16316200;2023-12-04T05:26:31;4.10;99.90
19363;DHT22;9817;50.80926400;5.16316200;2023-12-04T05:28:57;4.10;99.90
19363;DHT22;9817;50.80926400;5.16316200;2023-12-04T05:31:23;4.10;99.90
19363;DHT22;9817;50.80926400;5.16316200;2023-12-04T05:33:48;4.00;99.90
19363;DHT22;9817;50.80926400;5.16316200;2023-12-04T05:36:15;4.00;99.90
19363;DHT22;9817;50.80926400;5.16316200;2023-12-04T05:38:41;4.00;99.90
19363;DHT22;9817;50.80926400;5.16316200;2023-12-04T05:41:06;3.90;99.90
19363;DHT22;9817;50.80926400;5.16316200;2023-12-04T05:43:32;3.80;99.90
19363;DHT22;9817;50.80926400;5.16316200;2023-12-04T05:45:58;3.80;99.90
19363;DHT22;9817;50.80926400;5.16316200;2023-12-04T05:48:23;3.80;99.90
19363;DHT22;9817;50.80926400;5.16316200;2023-12-04T05:50:49;3.70;99.90
19363;DHT22;9817;50.80926400;5.16316200;2023-12-04T05:53:16;3.70;99.90
19363;DHT22;9817;50.80926400;5.16316200;2023-12-04T05:55:41;3.80;99.90
19363;DHT22;9817;50.80926400;5.16316200;2023-12-04T05:58:07;3.80;99.90
19363;DHT22;9817;50.80926400;5.16316200;2023-12-04T06:00:34;3.70;99.90
19363;DHT22;9817;50.80926400;5.16316200;2023-12-04T06:03:00;3.80;99.90
19363;DHT22;9817;50.80926400;5.16316200;2023-12-04T06:05:25;3.80;99.90
19363;DHT22;9817;50.80926400;5.16316200;2023-12-04T06:07:51;3.70;99.90
19363;DHT22;9817;50.80926400;5.16316200;2023-12-04T06:10:16;3.70;99.90
19363;DHT22;9817;50.80926400;5.16316200;2023-12-04T06:12:42;3.80;99.90
19363;DHT22;9817;50.80926400;5.16316200;2023-12-04T06:15:08;3.70;99.90
19363;DHT22;9817;50.80926400;5.16316200;2023-12-04T06:17:34;3.70;99.90
19363;DHT22;9817;50.80926400;5.16316200;2023-12-04T06:19:59;3.80;99.90
19363;DHT22;9817;50.80926400;5.16316200;2023-12-04T06:22:25;3.80;99.90
19363;DHT22;9817;50.80926400;5.16316200;2023-12-04T06:24:52;3.80;99.90
19363;DHT22;9817;50.80926400;5.16316200;2023-12-04T06:27:19;3.80;99.90
19363;DHT22;9817;50.80926400;5.16316200;2023-12-04T06:29:48;3.70;99.90
19363;DHT22;9817;50.80926400;5.16316200;2023-12-04T06:32:15;3.70;99.90
19363;DHT22;9817;50.80926400;5.16316200;2023-12-04T06:34:41;3.70;99.90
19363;DHT22;9817;50.80926400;5.16316200;2023-12-04T06:37:11;3.80;99.90
19363;DHT22;9817;50.80926400;5.16316200;2023-12-04T06:39:38;3.70;99.90
19363;DHT22;9817;50.80926400;5.16316200;2023-12-04T06:42:07;3.80;99.90
19363;DHT22;9817;50.80926400;5.16316200;2023-12-04T06:44:34;3.80;99.90
19363;DHT22;9817;50.80926400;5.16316200;2023-12-04T06:47:00;3.80;99.90
19363;DHT22;9817;50.80926400;5.16316200;2023-12-04T06:49:31;3.70;99.90
19363;DHT22;9817;50.80926400;5.16316200;2023-12-04T06:51:58;3.70;99.90
19363;DHT22;9817;50.80926400;5.16316200;2023-12-04T06:54:23;3.70;99.90
19363;DHT22;9817;50.80926400;5.16316200;2023-12-04T06:56:50;3.60;99.90
19363;DHT22;9817;50.80926400;5.16316200;2023-12-04T06:59:16;3.60;99.90
19363;DHT22;9817;50.80926400;5.16316200;2023-12-04T07:01:42;3.60;99.90
19363;DHT22;9817;50.80926400;5.16316200;2023-12-04T07:04:08;3.60;99.90
19363;DHT22;9817;50.80926400;5.16316200;2023-12-04T07:06:44;3.60;99.90
19363;DHT22;9817;50.80926400;5.16316200;2023-12-04T07:09:09;3.60;99.90
19363;DHT22;9817;50.80926400;5.16316200;2023-12-04T07:11:35;3.70;99.90
19363;DHT22;9817;50.80926400;5.16316200;2023-12-04T07:14:01;3.70;99.90
19363;DHT22;9817;50.80926400;5.16316200;2023-12-04T07:16:27;3.60;99.90
19363;DHT22;9817;50.80926400;5.16316200;2023-12-04T07:18:52;3.70;99.90
19363;DHT22;9817;50.80926400;5.16316200;2023-12-04T07:21:18;3.70;99.90
19363;DHT22;9817;50.80926400;5.16316200;2023-12-04T07:23:44;3.70;99.90
19363;DHT22;9817;50.80926400;5.16316200;2023-12-04T07:26:09;3.80;99.90
19363;DHT22;9817;50.80926400;5.16316200;2023-12-04T07:28:35;4.00;99.90
19363;DHT22;9817;50.80926400;5.16316200;2023-12-04T07:31:01;4.00;99.90
19363;DHT22;9817;50.80926400;5.16316200;2023-12-04T07:33:29;4.00;99.90
19363;DHT22;9817;50.80926400;5.16316200;2023-12-04T07:35:55;3.90;99.90
19363;DHT22;9817;50.80926400;5.16316200;2023-12-04T07:38:21;3.80;99.90
19363;DHT22;9817;50.80926400;5.16316200;2023-12-04T07:40:46;3.90;99.90
19363;DHT22;9817;50.80926400;5.16316200;2023-12-04T07:43:12;4.00;99.90
19363;DHT22;9817;50.80926400;5.16316200;2023-12-04T07:45:40;3.90;99.90
19363;DHT22;9817;50.80926400;5.16316200;2023-12-04T07:48:06;3.80;99.90
19363;DHT22;9817;50.80926400;5.16316200;2023-12-04T07:50:32;3.90;99.90
19363;DHT22;9817;50.80926400;5.16316200;2023-12-04T07:52:57;3.90;99.90
19363;DHT22;9817;50.80926400;5.16316200;2023-12-04T07:55:23;3.80;99.90
19363;DHT22;9817;50.80926400;5.16316200;2023-12-04T07:57:49;3.80;99.90
19363;DHT22;9817;50.80926400;5.16316200;2023-12-04T08:00:16;4.00;99.90
19363;DHT22;9817;50.80926400;5.16316200;2023-12-04T08:02:44;4.10;99.90
19363;DHT22;9817;50.80926400;5.16316200;2023-12-04T08:05:11;4.00;99.90
19363;DHT22;9817;50.80926400;5.16316200;2023-12-04T08:07:37;4.00;99.90
19363;DHT22;9817;50.80926400;5.16316200;2023-12-04T08:10:04;3.90;99.90
19363;DHT22;9817;50.80926400;5.16316200;2023-12-04T08:12:29;3.90;99.90
19363;DHT22;9817;50.80926400;5.16316200;2023-12-04T08:14:55;4.00;99.90
19363;DHT22;9817;50.80926400;5.16316200;2023-12-04T08:17:21;4.00;99.90
19363;DHT22;9817;50.80926400;5.16316200;2023-12-04T08:19:46;3.80;99.90
19363;DHT22;9817;50.80926400;5.16316200;2023-12-04T08:22:12;3.90;99.90
19363;DHT22;9817;50.80926400;5.16316200;2023-12-04T08:24:38;3.80;99.90
19363;DHT22;9817;50.80926400;5.16316200;2023-12-04T08:27:03;3.90;99.90
19363;DHT22;9817;50.80926400;5.16316200;2023-12-04T08:29:29;3.80;99.90
19363;DHT22;9817;50.80926400;5.16316200;2023-12-04T08:31:55;3.90;99.90
19363;DHT22;9817;50.80926400;5.16316200;2023-12-04T08:34:20;4.00;99.90
19363;DHT22;9817;50.80926400;5.16316200;2023-12-04T08:36:46;3.90;99.90
19363;DHT22;9817;50.80926400;5.16316200;2023-12-04T08:39:12;4.00;99.90
19363;DHT22;9817;50.80926400;5.16316200;2023-12-04T08:41:37;4.00;99.90
19363;DHT22;9817;50.80926400;5.16316200;2023-12-04T08:44:03;4.10;99.90
19363;DHT22;9817;50.80926400;5.16316200;2023-12-04T08:46:29;4.00;99.90
19363;DHT22;9817;50.80926400;5.16316200;2023-12-04T08:48:54;4.00;99.90
19363;DHT22;9817;50.80926400;5.16316200;2023-12-04T08:51:20;4.00;99.90
19363;DHT22;9817;50.80926400;5.16316200;2023-12-04T08:53:46;4.10;99.90
19363;DHT22;9817;50.80926400;5.16316200;2023-12-04T08:56:11;4.10;99.90
19363;DHT22;9817;50.80926400;5.16316200;2023-12-04T08:58:38;4.10;99.90
19363;DHT22;9817;50.80926400;5.16316200;2023-12-04T09:01:04;4.00;99.90
19363;DHT22;9817;50.80926400;5.16316200;2023-12-04T09:03:30;4.00;99.90
19363;DHT22;9817;50.80926400;5.16316200;2023-12-04T09:05:58;4.10;99.90
19363;DHT22;9817;50.80926400;5.16316200;2023-12-04T09:08:24;4.00;99.90
19363;DHT22;9817;50.80926400;5.16316200;2023-12-04T09:10:52;4.10;99.90
19363;DHT22;9817;50.80926400;5.16316200;2023-12-04T09:13:18;3.90;99.90
19363;DHT22;9817;50.80926400;5.16316200;2023-12-04T09:15:43;3.90;99.90
19363;DHT22;9817;50.80926400;5.16316200;2023-12-04T09:18:09;4.00;99.90
19363;DHT22;9817;50.80926400;5.16316200;2023-12-04T09:20:35;4.00;99.90
19363;DHT22;9817;50.80926400;5.16316200;2023-12-04T09:23:01;4.00;99.90
19363;DHT22;9817;50.80926400;5.16316200;2023-12-04T09:25:27;3.90;99.90
19363;DHT22;9817;50.80926400;5.16316200;2023-12-04T09:27:53;3.80;99.90
19363;DHT22;9817;50.80926400;5.16316200;2023-12-04T09:30:18;3.90;99.90
19363;DHT22;9817;50.80926400;5.16316200;2023-12-04T09:32:44;4.00;99.90
19363;DHT22;9817;50.80926400;5.16316200;2023-12-04T09:35:10;4.00;99.90
19363;DHT22;9817;50.80926400;5.16316200;2023-12-04T09:37:36;4.10;99.90
19363;DHT22;9817;50.80926400;5.16316200;2023-12-04T09:40:02;4.10;99.90
19363;DHT22;9817;50.80926400;5.16316200;2023-12-04T09:42:29;4.10;99.90
19363;DHT22;9817;50.80926400;5.16316200;2023-12-04T09:44:56;4.00;99.90
19363;DHT22;9817;50.80926400;5.16316200;2023-12-04T09:47:23;4.10;99.90
19363;DHT22;9817;50.80926400;5.16316200;2023-12-04T09:49:51;4.20;99.90
19363;DHT22;9817;50.80926400;5.16316200;2023-12-04T09:52:19;4.10;99.90
19363;DHT22;9817;50.80926400;5.16316200;2023-12-04T09:54:46;4.00;99.90
19363;DHT22;9817;50.80926400;5.16316200;2023-12-04T09:57:12;4.00;99.90
19363;DHT22;9817;50.80926400;5.16316200;2023-12-04T09:59:41;4.00;99.90
19363;DHT22;9817;50.80926400;5.16316200;2023-12-04T10:02:09;4.10;99.90
19363;DHT22;9817;50.80926400;5.16316200;2023-12-04T10:04:35;4.10;99.90
19363;DHT22;9817;50.80926400;5.16316200;2023-12-04T10:07:01;3.90;99.90
19363;DHT22;9817;50.80926400;5.16316200;2023-12-04T10:09:28;3.90;99.90
19363;DHT22;9817;50.80926400;5.16316200;2023-12-04T10:11:56;3.80;99.90
19363;DHT22;9817;50.80926400;5.16316200;2023-12-04T10:14:22;3.80;99.90
19363;DHT22;9817;50.80926400;5.16316200;2023-12-04T10:16:48;3.90;99.90
19363;DHT22;9817;50.80926400;5.16316200;2023-12-04T10:21:56;4.00;99.90
19363;DHT22;9817;50.80926400;5.16316200;2023-12-04T10:24:34;4.10;99.90
19363;DHT22;9817;50.80926400;5.16316200;2023-12-04T10:27:09;4.30;99.90
19363;DHT22;9817;50.80926400;5.16316200;2023-12-04T10:29:46;4.20;99.90
19363;DHT22;9817;50.80926400;5.16316200;2023-12-04T10:32:12;4.10;99.90
19363;DHT22;9817;50.80926400;5.16316200;2023-12-04T10:34:40;3.80;99.90
19363;DHT22;9817;50.80926400;5.16316200;2023-12-04T10:37:09;3.70;99.90
19363;DHT22;9817;50.80926400;5.16316200;2023-12-04T10:39:51;3.80;99.90
19363;DHT22;9817;50.80926400;5.16316200;2023-12-04T10:42:30;3.70;99.90
19363;DHT22;9817;50.80926400;5.16316200;2023-12-04T10:44:56;3.80;99.90
19363;DHT22;9817;50.80926400;5.16316200;2023-12-04T10:47:23;3.80;99.90
19363;DHT22;9817;50.80926400;5.16316200;2023-12-04T10:49:49;3.70;99.90
19363;DHT22;9817;50.80926400;5.16316200;2023-12-04T10:52:16;4.00;99.90
19363;DHT22;9817;50.80926400;5.16316200;2023-12-04T10:54:45;4.00;99.90
19363;DHT22;9817;50.80926400;5.16316200;2023-12-04T10:57:13;3.90;99.90
19363;DHT22;9817;50.80926400;5.16316200;2023-12-04T10:59:42;4.00;99.90
19363;DHT22;9817;50.80926400;5.16316200;2023-12-04T11:02:17;3.90;99.90
19363;DHT22;9817;50.80926400;5.16316200;2023-12-04T11:04:48;3.80;99.90
19363;DHT22;9817;50.80926400;5.16316200;2023-12-04T11:07:16;3.80;99.90
19363;DHT22;9817;50.80926400;5.16316200;2023-12-04T11:09:44;4.00;99.90
19363;DHT22;9817;50.80926400;5.16316200;2023-12-04T11:12:11;4.10;99.90
19363;DHT22;9817;50.80926400;5.16316200;2023-12-04T11:14:44;4.10;99.90
19363;DHT22;9817;50.80926400;5.16316200;2023-12-04T11:17:14;4.10;99.90
19363;DHT22;9817;50.80926400;5.16316200;2023-12-04T11:19:55;4.00;99.90
19363;DHT22;9817;50.80926400;5.16316200;2023-12-04T11:22:21;4.00;99.90
19363;DHT22;9817;50.80926400;5.16316200;2023-12-04T11:24:48;4.20;99.90
19363;DHT22;9817;50.80926400;5.16316200;2023-12-04T11:27:19;4.30;99.90
19363;DHT22;9817;50.80926400;5.16316200;2023-12-04T11:29:46;4.30;99.90
19363;DHT22;9817;50.80926400;5.16316200;2023-12-04T11:32:15;4.30;99.90
19363;DHT22;9817;50.80926400;5.16316200;2023-12-04T11:34:51;4.10;99.90
19363;DHT22;9817;50.80926400;5.16316200;2023-12-04T11:37:20;4.10;99.90
19363;DHT22;9817;50.80926400;5.16316200;2023-12-04T11:39:47;4.10;99.90
19363;DHT22;9817;50.80926400;5.16316200;2023-12-04T11:42:19;4.20;99.90
19363;DHT22;9817;50.80926400;5.16316200;2023-12-04T11:44:48;4.30;99.90
19363;DHT22;9817;50.80926400;5.16316200;2023-12-04T11:47:15;4.50;99.90
19363;DHT22;9817;50.80926400;5.16316200;2023-12-04T11:49:41;4.50;99.90
19363;DHT22;9817;50.80926400;5.16316200;2023-12-04T11:52:07;4.50;99.90
19363;DHT22;9817;50.80926400;5.16316200;2023-12-04T11:54:58;4.30;99.90
19363;DHT22;9817;50.80926400;5.16316200;2023-12-04T11:57:24;4.30;99.90
19363;DHT22;9817;50.80926400;5.16316200;2023-12-04T11:59:52;4.20;99.90
19363;DHT22;9817;50.80926400;5.16316200;2023-12-04T12:02:17;4.30;99.90
19363;DHT22;9817;50.80926400;5.16316200;2023-12-04T12:04:43;4.30;99.90
19363;DHT22;9817;50.80926400;5.16316200;2023-12-04T12:07:11;4.40;99.90
19363;DHT22;9817;50.80926400;5.16316200;2023-12-04T12:09:37;4.40;99.90
19363;DHT22;9817;50.80926400;5.16316200;2023-12-04T12:12:04;4.70;99.90
19363;DHT22;9817;50.80926400;5.16316200;2023-12-04T12:14:30;4.70;99.90
19363;DHT22;9817;50.80926400;5.16316200;2023-12-04T12:16:59;4.80;99.90
19363;DHT22;9817;50.80926400;5.16316200;2023-12-04T12:19:25;4.90;99.90
19363;DHT22;9817;50.80926400;5.16316200;2023-12-04T12:21:50;4.90;99.90
19363;DHT22;9817;50.80926400;5.16316200;2023-12-04T12:24:39;4.90;99.90
19363;DHT22;9817;50.80926400;5.16316200;2023-12-04T14:55:07;4.60;99.90
19363;DHT22;9817;50.80926400;5.16316200;2023-12-04T14:57:33;4.70;99.90
19363;DHT22;9817;50.80926400;5.16316200;2023-12-04T15:00:08;4.80;99.90
19363;DHT22;9817;50.80926400;5.16316200;2023-12-04T15:03:03;4.80;99.90
19363;DHT22;9817;50.80926400;5.16316200;2023-12-04T15:05:31;4.70;99.90
19363;DHT22;9817;50.80926400;5.16316200;2023-12-04T15:07:59;4.70;99.90
19363;DHT22;9817;50.80926400;5.16316200;2023-12-04T15:10:43;4.70;99.90
19363;DHT22;9817;50.80926400;5.16316200;2023-12-04T15:13:27;4.80;99.90
19363;DHT22;9817;50.80926400;5.16316200;2023-12-04T15:15:55;4.70;99.90
19363;DHT22;9817;50.80926400;5.16316200;2023-12-04T15:18:40;4.70;99.90
19363;DHT22;9817;50.80926400;5.16316200;2023-12-04T15:21:28;4.70;99.90
19363;DHT22;9817;50.80926400;5.16316200;2023-12-04T15:23:54;4.80;99.90
19363;DHT22;9817;50.80926400;5.16316200;2023-12-04T15:26:20;4.70;99.90
19363;DHT22;9817;50.80926400;5.16316200;2023-12-04T15:28:46;4.70;99.90
19363;DHT22;9817;50.80926400;5.16316200;2023-12-04T15:31:12;4.60;99.90
19363;DHT22;9817;50.80926400;5.16316200;2023-12-04T15:33:37;4.80;99.90
19363;DHT22;9817;50.80926400;5.16316200;2023-12-04T15:36:03;4.70;99.90
19363;DHT22;9817;50.80926400;5.16316200;2023-12-04T15:38:29;4.70;99.90
19363;DHT22;9817;50.80926400;5.16316200;2023-12-04T15:40:55;4.70;99.90
19363;DHT22;9817;50.80926400;5.16316200;2023-12-04T15:43:22;4.60;99.90
19363;DHT22;9817;50.80926400;5.16316200;2023-12-04T15:45:47;4.60;99.90
19363;DHT22;9817;50.80926400;5.16316200;2023-12-04T15:48:13;4.80;99.90
19363;DHT22;9817;50.80926400;5.16316200;2023-12-04T15:50:38;4.80;99.90
19363;DHT22;9817;50.80926400;5.16316200;2023-12-04T15:53:05;4.80;99.90
19363;DHT22;9817;50.80926400;5.16316200;2023-12-04T15:55:31;4.90;99.90
19363;DHT22;9817;50.80926400;5.16316200;2023-12-04T15:57:57;4.90;99.90
19363;DHT22;9817;50.80926400;5.16316200;2023-12-04T16:00:25;5.00;99.90
19363;DHT22;9817;50.80926400;5.16316200;2023-12-04T16:02:52;5.20;99.90
19363;DHT22;9817;50.80926400;5.16316200;2023-12-04T16:05:18;5.30;99.90
19363;DHT22;9817;50.80926400;5.16316200;2023-12-04T16:07:44;5.20;99.90
19363;DHT22;9817;50.80926400;5.16316200;2023-12-04T16:10:10;5.30;99.90
19363;DHT22;9817;50.80926400;5.16316200;2023-12-04T16:12:37;5.20;99.90
19363;DHT22;9817;50.80926400;5.16316200;2023-12-04T16:15:05;5.20;99.90